Time;durP1;ratioP1;P1;durP2;ratioP2;P2;SDS_P1;SDS_P2;PMS_P1;PMS_P2;Temp;Humidity;BMP_temperature;BMP_pressure;BME280_temperature;BME280_humidity;BME280_pressure;Samples;Min_cycle;Max_cycle;Signal;HPM_P1;HPM_P2
2022/10/26 00:01:08;;;;;;;4.13;2.70;;;14.60;99.90;;;;;;5012551;28;20190;-49
2022/10/26 00:03:35;;;;;;;3.58;3.17;;;14.20;99.90;;;;;;5012095;28;20233;-49
2022/10/26 00:06:10;;;;;;;7.15;3.25;;;14.30;99.90;;;;;;5013779;28;20190;-49
2022/10/26 00:08:37;;;;;;;3.42;3.03;;;14.40;99.90;;;;;;5011314;28;20546;-48
2022/10/26 00:11:03;;;;;;;5.45;3.95;;;14.40;99.90;;;;;;5011891;28;20191;-49
2022/10/26 00:13:29;;;;;;;4.28;2.97;;;14.40;99.90;;;;;;5013239;28;20203;-49
2022/10/26 00:15:55;;;;;;;5.70;3.37;;;14.50;99.90;;;;;;5011500;28;20221;-49
2022/10/26 00:18:22;;;;;;;3.10;2.80;;;14.40;99.90;;;;;;5002642;28;20194;-51
2022/10/26 00:20:48;;;;;;;4.75;3.05;;;14.20;99.90;;;;;;5008157;28;20198;-49
2022/10/26 00:23:14;;;;;;;3.67;3.33;;;13.90;99.90;;;;;;5008109;28;20183;-50
2022/10/26 00:25:40;;;;;;;3.73;2.77;;;13.90;99.90;;;;;;5011621;28;20945;-50
2022/10/26 00:28:05;;;;;;;4.00;2.93;;;14.20;99.90;;;;;;5011096;28;20664;-50
2022/10/26 00:30:31;;;;;;;8.57;3.33;;;14.10;99.90;;;;;;5012469;28;20191;-50
2022/10/26 00:32:56;;;;;;;3.70;3.00;;;14.40;99.90;;;;;;5002616;28;20224;-50
2022/10/26 00:35:22;;;;;;;4.07;2.80;;;14.10;99.90;;;;;;4992066;28;20230;-50
2022/10/26 00:37:47;;;;;;;4.20;2.90;;;14.20;99.90;;;;;;5004303;28;20908;-51
2022/10/26 00:40:14;;;;;;;5.53;4.10;;;14.00;99.90;;;;;;5010698;28;20206;-49
2022/10/26 00:42:39;;;;;;;7.97;3.40;;;14.10;99.90;;;;;;5004568;28;20276;-50
2022/10/26 00:45:26;;;;;;;4.40;3.30;;;14.10;99.90;;;;;;5009298;28;20264;-50
2022/10/26 00:48:00;;;;;;;4.80;3.35;;;14.10;99.90;;;;;;5010012;28;20197;-50
2022/10/26 00:50:39;;;;;;;3.47;3.15;;;14.10;99.90;;;;;;5012020;28;20199;-50
2022/10/26 00:53:06;;;;;;;8.52;3.25;;;14.00;99.90;;;;;;4998152;28;20285;-50
2022/10/26 00:55:36;;;;;;;4.75;2.97;;;14.10;99.90;;;;;;5011569;28;20214;-50
2022/10/26 00:58:04;;;;;;;6.40;3.58;;;14.10;99.90;;;;;;5011254;28;20186;-50
2022/10/26 01:00:30;;;;;;;6.65;3.25;;;14.20;99.90;;;;;;5015218;28;20851;-49
2022/10/26 01:03:00;;;;;;;5.13;3.60;;;13.80;99.90;;;;;;5028206;23;20178;-83
2022/10/26 01:05:26;;;;;;;5.97;3.42;;;14.00;99.90;;;;;;5022214;28;20190;-83
2022/10/26 01:07:53;;;;;;;4.35;3.05;;;14.00;99.90;;;;;;5025270;28;20710;-83
2022/10/26 01:10:19;;;;;;;4.05;3.65;;;14.00;99.90;;;;;;5027547;28;20647;-83
2022/10/26 01:12:46;;;;;;;4.80;3.30;;;13.50;99.90;;;;;;5026779;28;20178;-85
2022/10/26 01:15:11;;;;;;;3.78;3.38;;;13.80;99.90;;;;;;5026878;28;20227;-83
2022/10/26 01:17:37;;;;;;;4.13;3.38;;;14.50;99.90;;;;;;5028052;28;20328;-82
2022/10/26 01:20:19;;;;;;;4.00;3.20;;;14.10;99.90;;;;;;5028088;28;20336;-83
2022/10/26 01:23:12;;;;;;;3.97;3.58;;;13.60;99.90;;;;;;5023633;28;20288;-85
2022/10/26 01:26:14;;;;;;;6.10;2.90;;;14.10;99.90;;;;;;5029510;28;20198;-85
2022/10/26 01:28:58;;;;;;;4.30;3.90;;;14.40;99.90;;;;;;5025040;28;20210;-85
2022/10/26 01:31:31;;;;;;;6.10;3.85;;;14.30;99.90;;;;;;5024296;28;20788;-85
2022/10/26 01:34:09;;;;;;;5.05;3.40;;;13.70;99.90;;;;;;5025932;28;20241;-85
2022/10/26 01:36:56;;;;;;;3.97;3.58;;;14.20;99.90;;;;;;5046513;28;20206;-83
2022/10/26 01:39:51;;;;;;;3.95;3.10;;;14.20;99.90;;;;;;5026666;28;20273;-84
2022/10/26 01:42:19;;;;;;;4.20;3.10;;;14.20;99.90;;;;;;5027440;28;20181;-84
2022/10/26 01:44:50;;;;;;;3.92;3.40;;;13.90;99.90;;;;;;5028002;28;20241;-85
2022/10/26 01:47:18;;;;;;;3.20;2.90;;;14.40;99.90;;;;;;5028749;28;20178;-85
2022/10/26 01:49:59;;;;;;;3.30;3.05;;;14.20;99.90;;;;;;5032661;28;20273;-85
2022/10/26 01:52:26;;;;;;;5.53;3.67;;;14.20;99.90;;;;;;5024872;28;20193;-84
2022/10/26 01:55:02;;;;;;;3.03;2.80;;;14.10;99.90;;;;;;5031221;28;20757;-85
2022/10/26 01:57:32;;;;;;;3.45;3.15;;;14.10;99.90;;;;;;5033249;28;20182;-85
2022/10/26 02:00:06;;;;;;;6.35;2.85;;;14.40;99.90;;;;;;5032708;28;20236;-85
2022/10/26 02:02:49;;;;;;;3.03;2.80;;;14.30;99.90;;;;;;5031394;28;20679;-83
2022/10/26 02:05:25;;;;;;;5.80;3.17;;;14.30;99.90;;;;;;5027068;28;20204;-85
2022/10/26 02:08:11;;;;;;;4.32;3.45;;;14.40;99.90;;;;;;5026180;28;20195;-84
2022/10/26 02:11:08;;;;;;;6.55;3.35;;;14.10;99.90;;;;;;5032717;28;20193;-84
2022/10/26 02:13:46;;;;;;;6.25;3.20;;;14.50;99.90;;;;;;5028683;28;20293;-85
2022/10/26 02:16:17;;;;;;;4.00;3.05;;;14.30;99.90;;;;;;5029770;28;20547;-85
2022/10/26 02:18:45;;;;;;;5.28;3.00;;;14.50;99.90;;;;;;5028975;28;20179;-84
2022/10/26 02:21:20;;;;;;;3.42;3.08;;;14.30;99.90;;;;;;5028510;28;20189;-84
2022/10/26 02:23:47;;;;;;;4.43;3.20;;;14.10;99.90;;;;;;5025443;28;20202;-85
2022/10/26 02:26:16;;;;;;;5.95;3.17;;;14.20;99.90;;;;;;5029975;28;20623;-85
2022/10/26 02:28:48;;;;;;;3.28;2.47;;;13.80;99.90;;;;;;5032018;28;20186;-85
2022/10/26 02:31:14;;;;;;;2.92;2.38;;;13.90;99.90;;;;;;5032998;28;20650;-84
2022/10/26 02:33:45;;;;;;;4.60;2.90;;;13.70;99.90;;;;;;5019946;28;20215;-84
2022/10/26 02:36:15;;;;;;;4.13;3.03;;;14.30;99.90;;;;;;5026493;28;20212;-84
2022/10/26 02:38:42;;;;;;;3.47;3.05;;;14.10;99.90;;;;;;5027579;28;20187;-84
2022/10/26 02:41:09;;;;;;;2.92;2.63;;;14.20;99.90;;;;;;5030859;28;20285;-84
2022/10/26 02:43:40;;;;;;;6.38;2.90;;;13.90;99.90;;;;;;5031380;28;20213;-84
2022/10/26 02:46:09;;;;;;;3.15;2.85;;;14.40;99.90;;;;;;5024177;28;20183;-84
2022/10/26 02:48:35;;;;;;;4.45;3.13;;;14.30;99.90;;;;;;5031125;28;20201;-84
2022/10/26 02:51:31;;;;;;;3.97;2.93;;;14.00;99.90;;;;;;5026035;28;20186;-85
2022/10/26 02:54:09;;;;;;;4.72;2.85;;;14.20;99.90;;;;;;5028254;28;20511;-84
2022/10/26 02:56:42;;;;;;;4.00;2.70;;;14.30;99.90;;;;;;5030305;28;20581;-85
2022/10/26 02:59:10;;;;;;;3.22;2.92;;;14.40;99.90;;;;;;5031286;28;20185;-85
2022/10/26 03:01:36;;;;;;;3.00;2.70;;;14.30;99.90;;;;;;5029731;28;20584;-85
2022/10/26 03:04:01;;;;;;;3.17;2.67;;;14.50;99.90;;;;;;5021876;28;20287;-85
2022/10/26 03:06:27;;;;;;;2.70;2.50;;;13.90;99.90;;;;;;5031219;28;20190;-85
2022/10/26 03:08:52;;;;;;;4.23;3.00;;;14.40;99.90;;;;;;5030351;28;20225;-85
2022/10/26 03:11:18;;;;;;;3.43;2.67;;;13.70;99.90;;;;;;5032320;28;20477;-85
2022/10/26 03:13:44;;;;;;;4.17;3.20;;;13.50;99.90;;;;;;5026371;28;20203;-85
2022/10/26 03:16:10;;;;;;;3.70;2.90;;;14.30;99.90;;;;;;5031858;28;20209;-85
2022/10/26 03:18:35;;;;;;;3.58;2.60;;;14.20;99.90;;;;;;5028820;28;20651;-85
2022/10/26 03:21:01;;;;;;;2.67;2.47;;;14.10;99.90;;;;;;5028873;28;20182;-85
2022/10/26 03:23:26;;;;;;;3.57;2.90;;;14.00;99.90;;;;;;5025535;28;20206;-85
2022/10/26 03:25:56;;;;;;;3.83;3.30;;;13.60;99.90;;;;;;5032519;28;20194;-84
2022/10/26 03:28:22;;;;;;;4.50;3.00;;;13.60;99.90;;;;;;5030590;28;20194;-85
2022/10/26 03:30:47;;;;;;;3.33;3.07;;;13.60;99.90;;;;;;5024239;28;20221;-84
2022/10/26 03:33:13;;;;;;;5.73;4.77;;;14.10;99.90;;;;;;5027148;28;20269;-84
2022/10/26 03:35:38;;;;;;;4.33;3.17;;;14.60;99.90;;;;;;5030800;28;20570;-84
2022/10/26 03:38:04;;;;;;;3.10;2.80;;;14.20;99.90;;;;;;5020414;28;20182;-85
2022/10/26 03:40:29;;;;;;;5.30;3.10;;;13.70;99.90;;;;;;5045711;28;20181;-84
2022/10/26 03:42:55;;;;;;;3.63;3.20;;;14.10;99.90;;;;;;5028719;28;20996;-85
2022/10/26 03:45:20;;;;;;;5.40;4.90;;;14.00;99.90;;;;;;5030461;28;20232;-85
2022/10/26 03:47:47;;;;;;;3.23;2.93;;;14.10;99.90;;;;;;5032069;28;20210;-85
2022/10/26 03:50:15;;;;;;;3.75;3.10;;;13.90;99.90;;;;;;5028524;28;20186;-85
2022/10/26 03:52:41;;;;;;;4.47;4.07;;;14.80;99.90;;;;;;5021004;28;20212;-84
2022/10/26 03:55:07;;;;;;;4.20;2.97;;;14.50;99.90;;;;;;5026433;28;20757;-85
2022/10/26 03:57:33;;;;;;;3.83;2.65;;;14.60;99.90;;;;;;5027161;28;20187;-85
2022/10/26 03:59:59;;;;;;;7.90;3.00;;;14.50;99.90;;;;;;5045780;28;20550;-85
2022/10/26 04:02:24;;;;;;;5.57;2.70;;;14.70;99.90;;;;;;5027239;28;20205;-85
2022/10/26 04:04:50;;;;;;;3.37;2.60;;;15.10;99.90;;;;;;5041991;28;20313;-85
2022/10/26 04:07:15;;;;;;;4.00;3.03;;;14.60;99.90;;;;;;5026474;28;20197;-85
2022/10/26 04:09:41;;;;;;;4.17;3.00;;;15.10;99.90;;;;;;5031241;28;20182;-85
2022/10/26 04:12:06;;;;;;;4.90;2.97;;;14.70;99.90;;;;;;5029272;28;20190;-85
2022/10/26 04:14:32;;;;;;;3.20;2.90;;;14.80;99.90;;;;;;5028455;28;20706;-85
2022/10/26 04:16:57;;;;;;;3.17;2.87;;;15.40;99.90;;;;;;5026212;28;20510;-85
2022/10/26 04:19:23;;;;;;;3.90;3.03;;;14.70;99.90;;;;;;5045894;28;20659;-83
2022/10/26 04:21:50;;;;;;;3.40;3.07;;;14.80;99.90;;;;;;5030554;28;20205;-85
2022/10/26 04:24:16;;;;;;;3.13;2.88;;;15.10;99.90;;;;;;5021048;28;20671;-84
2022/10/26 04:26:42;;;;;;;3.60;2.70;;;14.90;99.90;;;;;;5021135;28;20188;-86
2022/10/26 04:29:08;;;;;;;3.10;2.80;;;14.90;99.90;;;;;;5032836;28;20190;-84
2022/10/26 04:31:33;;;;;;;3.88;2.78;;;15.10;99.90;;;;;;5023607;28;20197;-84
2022/10/26 04:33:59;;;;;;;4.17;3.00;;;16.40;99.90;;;;;;5028322;28;20241;-85
2022/10/26 04:36:24;;;;;;;3.10;2.80;;;15.10;99.90;;;;;;5028722;28;20221;-84
2022/10/26 04:38:50;;;;;;;2.70;2.50;;;15.00;99.90;;;;;;5030628;28;20205;-85
2022/10/26 04:41:15;;;;;;;4.23;3.07;;;14.80;99.90;;;;;;5032021;28;20178;-85
2022/10/26 04:43:41;;;;;;;5.50;2.60;;;15.00;99.90;;;;;;5030116;28;20202;-85
2022/10/26 04:46:07;;;;;;;3.87;2.83;;;15.10;99.90;;;;;;5024386;28;20189;-84
2022/10/26 04:48:32;;;;;;;3.97;2.53;;;15.60;99.90;;;;;;5032187;28;20209;-85
2022/10/26 04:50:59;;;;;;;2.83;2.63;;;15.30;99.90;;;;;;5032314;28;20248;-83
2022/10/26 04:53:24;;;;;;;4.53;2.90;;;15.40;99.90;;;;;;5026012;28;20736;-85
2022/10/26 04:55:56;;;;;;;3.50;3.10;;;15.30;99.90;;;;;;5032666;28;20250;-85
2022/10/26 04:58:21;;;;;;;5.72;2.50;;;15.10;99.90;;;;;;5030422;28;20579;-85
2022/10/26 05:00:47;;;;;;;4.70;2.50;;;15.00;99.90;;;;;;5031141;28;20214;-82
2022/10/26 05:03:12;;;;;;;2.83;2.60;;;15.30;99.90;;;;;;5031114;28;20213;-83
2022/10/26 05:05:38;;;;;;;2.93;2.60;;;14.80;99.90;;;;;;5029335;28;20213;-85
2022/10/26 05:08:04;;;;;;;3.90;2.30;;;15.20;99.90;;;;;;5022802;28;20170;-86
2022/10/26 05:10:30;;;;;;;3.90;2.40;;;14.80;99.90;;;;;;5027076;28;20191;-85
2022/10/26 05:12:57;;;;;;;2.90;2.70;;;15.10;99.90;;;;;;5028135;28;20476;-86
2022/10/26 05:15:22;;;;;;;3.65;2.55;;;15.40;99.90;;;;;;5036391;28;20548;-92
2022/10/26 05:17:55;;;;;;;3.20;2.60;;;15.20;99.90;;;;;;5024658;28;20270;-85
2022/10/26 05:20:27;;;;;;;4.55;3.53;;;15.20;99.90;;;;;;5028823;28;20186;-83
2022/10/26 05:22:53;;;;;;;4.07;2.90;;;15.50;99.90;;;;;;5027910;28;20186;-83
2022/10/26 05:25:19;;;;;;;5.33;3.40;;;15.30;99.90;;;;;;5033364;28;20661;-83
2022/10/26 05:27:44;;;;;;;5.03;2.97;;;15.20;99.90;;;;;;5035945;28;20182;-86
2022/10/26 05:30:10;;;;;;;2.87;2.17;;;15.60;99.90;;;;;;5031954;28;20689;-84
2022/10/26 05:32:35;;;;;;;5.03;2.70;;;15.50;99.90;;;;;;5034407;28;20277;-85
2022/10/26 05:35:01;;;;;;;3.83;2.40;;;15.70;99.90;;;;;;5032578;28;20536;-84
2022/10/26 05:37:30;;;;;;;5.13;2.77;;;15.50;99.90;;;;;;5041552;28;20247;-84
2022/10/26 05:39:55;;;;;;;3.67;2.40;;;15.90;99.90;;;;;;5033386;28;20195;-85
2022/10/26 05:42:21;;;;;;;5.07;2.30;;;16.10;99.90;;;;;;5039072;28;20264;-86
2022/10/26 05:44:46;;;;;;;2.97;2.70;;;15.60;99.90;;;;;;5031795;28;20225;-85
2022/10/26 05:47:12;;;;;;;3.40;2.30;;;15.90;99.90;;;;;;5034545;28;20218;-84
2022/10/26 05:49:37;;;;;;;3.90;2.83;;;15.70;99.90;;;;;;5032119;28;20190;-85
2022/10/26 05:52:03;;;;;;;2.90;2.60;;;15.70;99.90;;;;;;5030142;28;20192;-85
2022/10/26 05:54:29;;;;;;;3.37;2.43;;;15.90;99.90;;;;;;5027222;28;20216;-84
2022/10/26 05:56:55;;;;;;;3.00;2.80;;;15.80;99.90;;;;;;5030868;28;20441;-83
2022/10/26 05:59:21;;;;;;;2.57;2.37;;;15.80;99.90;;;;;;5033022;28;20220;-82
2022/10/26 06:02:01;;;;;;;5.00;2.93;;;15.80;99.90;;;;;;5031119;28;20437;-82
2022/10/26 06:04:37;;;;;;;3.25;2.95;;;15.90;99.90;;;;;;5028831;28;20484;-83
2022/10/26 06:07:12;;;;;;;4.07;2.50;;;17.20;99.90;;;;;;5029885;28;20228;-79
2022/10/26 06:09:39;;;;;;;4.78;2.67;;;15.80;99.90;;;;;;5031429;28;20235;-81
2022/10/26 06:12:06;;;;;;;2.70;2.45;;;16.10;99.90;;;;;;5032266;28;20187;-81
2022/10/26 06:14:33;;;;;;;3.35;3.03;;;16.30;99.90;;;;;;5028700;28;20202;-81
2022/10/26 06:17:21;;;;;;;3.60;2.50;;;15.90;99.90;;;;;;5032637;28;20314;-82
2022/10/26 06:20:25;;;;;;;2.75;2.10;;;16.10;99.90;;;;;;5031104;28;20230;-82
2022/10/26 06:23:22;;;;;;;4.15;2.42;;;16.20;99.90;;;;;;5024928;28;20264;-82
2022/10/26 06:26:07;;;;;;;2.40;2.20;;;16.30;99.90;;;;;;5022540;28;20269;-82
2022/10/26 06:28:57;;;;;;;6.10;2.15;;;16.50;99.90;;;;;;5032405;28;20224;-82
2022/10/26 06:31:23;;;;;;;2.78;2.58;;;16.30;99.90;;;;;;5032342;28;20712;-82
2022/10/26 06:33:49;;;;;;;5.83;3.00;;;16.30;99.90;;;;;;5029702;28;20202;-80
2022/10/26 06:36:24;;;;;;;4.10;2.10;;;16.00;99.90;;;;;;5030436;28;20206;-86
2022/10/26 06:39:03;;;;;;;4.03;2.30;;;16.50;99.90;;;;;;5031182;28;20272;-89
2022/10/26 06:41:31;;;;;;;3.30;1.70;;;16.70;99.90;;;;;;5033512;28;20178;-87
2022/10/26 06:43:57;;;;;;;4.85;2.55;;;16.50;99.90;;;;;;5032176;28;20211;-87
2022/10/26 06:46:41;;;;;;;2.43;2.23;;;16.50;99.90;;;;;;5032604;28;20291;-89
2022/10/26 06:49:36;;;;;;;5.90;2.25;;;16.50;99.90;;;;;;5031417;28;20182;-89
2022/10/26 06:52:38;;;;;;;4.35;2.08;;;16.40;99.90;;;;;;5025006;28;20246;-88
2022/10/26 06:55:04;;;;;;;3.38;2.08;;;16.50;99.90;;;;;;5000184;28;20257;-82
2022/10/26 06:57:35;;;;;;;2.42;2.08;;;16.70;99.90;;;;;;5030552;28;20296;-82
2022/10/26 07:00:19;;;;;;;4.85;2.92;;;16.70;99.90;;;;;;5030659;28;20597;-82
2022/10/26 07:02:45;;;;;;;3.97;2.45;;;16.50;99.90;;;;;;5028169;28;20186;-82
2022/10/26 07:05:14;;;;;;;4.13;2.93;;;16.60;99.90;;;;;;5026867;28;20540;-83
2022/10/26 07:07:42;;;;;;;4.60;2.20;;;16.50;99.90;;;;;;5028959;28;20655;-83
2022/10/26 07:10:09;;;;;;;2.38;1.90;;;16.30;99.90;;;;;;5029778;28;20201;-84
2022/10/26 07:12:35;;;;;;;2.40;2.20;;;16.40;99.90;;;;;;5031547;28;20669;-84
2022/10/26 07:15:00;;;;;;;3.00;2.33;;;16.90;99.90;;;;;;5025615;28;20210;-81
2022/10/26 07:17:27;;;;;;;4.13;2.10;;;16.40;99.90;;;;;;5030160;28;20944;-81
2022/10/26 07:19:53;;;;;;;3.47;2.45;;;16.70;99.90;;;;;;5029516;28;20189;-83
2022/10/26 07:22:19;;;;;;;2.80;2.00;;;16.60;99.90;;;;;;5032241;28;20268;-84
2022/10/26 07:24:48;;;;;;;5.80;2.40;;;16.90;99.90;;;;;;5032391;28;20594;-83
2022/10/26 07:27:14;;;;;;;2.35;2.15;;;16.90;99.90;;;;;;5031199;28;20189;-82
2022/10/26 07:29:40;;;;;;;2.67;2.23;;;16.80;99.90;;;;;;5031658;28;20175;-83
2022/10/26 07:32:06;;;;;;;4.13;2.67;;;16.80;99.90;;;;;;5029570;28;20268;-84
2022/10/26 07:34:31;;;;;;;5.53;2.70;;;18.30;99.90;;;;;;5021535;28;20205;-84
2022/10/26 07:36:58;;;;;;;3.50;2.47;;;17.00;99.90;;;;;;5030780;28;20667;-92
2022/10/26 07:39:24;;;;;;;5.13;2.95;;;17.20;99.90;;;;;;5040562;28;20187;-89
2022/10/26 07:41:50;;;;;;;3.10;2.80;;;17.30;99.90;;;;;;5034134;28;20205;-87
2022/10/26 07:44:15;;;;;;;2.50;2.30;;;16.80;99.90;;;;;;5029684;28;20204;-85
2022/10/26 07:46:41;;;;;;;2.70;2.00;;;17.20;99.90;;;;;;5038598;28;20554;-86
2022/10/26 07:49:06;;;;;;;5.90;2.30;;;17.00;99.90;;;;;;5049478;28;20189;-85
2022/10/26 07:51:32;;;;;;;3.60;2.50;;;17.30;99.90;;;;;;5039331;28;20797;-89
2022/10/26 07:53:58;;;;;;;2.60;2.00;;;17.80;99.90;;;;;;5034073;28;20215;-90
2022/10/26 07:56:23;;;;;;;4.33;2.43;;;17.60;99.90;;;;;;5031833;28;20202;-91
2022/10/26 07:58:52;;;;;;;5.00;2.37;;;17.80;99.90;;;;;;5032026;28;20717;-90
2022/10/26 08:01:18;;;;;;;2.30;2.10;;;17.30;99.90;;;;;;5045467;28;20201;-91
2022/10/26 08:03:43;;;;;;;4.17;2.27;;;17.40;99.90;;;;;;5027805;28;20291;-90
2022/10/26 08:06:09;;;;;;;6.53;2.67;;;17.20;99.90;;;;;;5032220;28;20174;-90
2022/10/26 08:08:36;;;;;;;4.05;2.67;;;17.30;99.90;;;;;;5027670;28;20645;-93
2022/10/26 08:11:02;;;;;;;2.88;2.42;;;18.00;99.90;;;;;;5032995;28;20182;-95
2022/10/26 08:13:28;;;;;;;2.95;2.22;;;17.70;99.90;;;;;;5024581;28;20207;-91
2022/10/26 08:16:02;;;;;;;4.15;2.80;;;18.10;99.90;;;;;;5036036;28;20208;-94
2022/10/26 08:18:28;;;;;;;3.47;2.55;;;20.40;99.90;;;;;;5029381;28;20177;-92
2022/10/26 08:20:54;;;;;;;4.10;2.07;;;18.00;99.90;;;;;;5033011;28;20182;-92
2022/10/26 08:23:21;;;;;;;2.83;2.00;;;17.80;99.90;;;;;;5042790;28;20224;-91
2022/10/26 08:25:46;;;;;;;4.95;3.05;;;17.50;99.90;;;;;;5043511;28;20715;-89
2022/10/26 08:28:13;;;;;;;3.00;2.80;;;17.90;99.90;;;;;;5032501;28;20186;-85
2022/10/26 08:30:38;;;;;;;6.25;2.80;;;17.90;99.90;;;;;;5044309;28;20586;-85
2022/10/26 08:33:06;;;;;;;6.17;3.20;;;18.00;99.90;;;;;;5033220;28;20285;-87
2022/10/26 08:35:42;;;;;;;4.13;2.88;;;18.40;99.90;;;;;;5032398;28;20674;-93
2022/10/26 08:38:07;;;;;;;4.90;2.35;;;17.80;99.90;;;;;;5024707;23;20318;-63
2022/10/26 08:40:37;;;;;;;4.00;2.70;;;17.90;99.90;;;;;;5009631;28;20727;-62
2022/10/26 08:43:11;;;;;;;3.15;2.33;;;18.00;99.90;;;;;;5007970;28;20182;-64
2022/10/26 08:45:43;;;;;;;5.65;2.35;;;18.00;99.90;;;;;;4992188;28;20778;-64
2022/10/26 08:48:17;;;;;;;3.13;2.65;;;18.20;99.90;;;;;;4988824;28;20648;-66
2022/10/26 08:50:52;;;;;;;3.10;2.60;;;18.00;99.90;;;;;;4985919;28;20182;-61
2022/10/26 08:53:31;;;;;;;5.70;2.85;;;18.00;99.90;;;;;;4986673;28;20667;-62
2022/10/26 08:56:02;;;;;;;3.72;2.92;;;18.10;99.90;;;;;;4989035;28;20562;-63
2022/10/26 08:58:35;;;;;;;3.88;2.45;;;18.10;99.90;;;;;;4992222;28;20557;-63
2022/10/26 09:01:02;;;;;;;3.20;2.28;;;18.00;99.90;;;;;;4987829;28;20727;-62
2022/10/26 09:03:27;;;;;;;3.95;2.50;;;18.10;99.90;;;;;;4999688;28;20210;-60
2022/10/26 09:06:16;;;;;;;7.27;3.73;;;18.20;99.90;;;;;;4990233;28;20723;-60
2022/10/26 09:09:00;;;;;;;3.53;2.63;;;18.20;99.90;;;;;;4990174;28;20206;-64
2022/10/26 09:12:00;;;;;;;7.03;3.90;;;18.40;99.90;;;;;;4990912;28;20201;-68
2022/10/26 09:14:54;;;;;;;5.80;3.17;;;18.40;99.90;;;;;;4992573;28;20214;-67
2022/10/26 09:17:39;;;;;;;3.05;2.65;;;18.60;99.90;;;;;;4982456;28;20207;-60
2022/10/26 09:20:35;;;;;;;2.80;2.50;;;18.80;99.90;;;;;;4989806;28;20179;-60
2022/10/26 09:23:29;;;;;;;3.47;2.50;;;19.10;99.90;;;;;;4988689;28;20232;-60
2022/10/26 09:26:08;;;;;;;4.13;2.65;;;19.30;99.90;;;;;;4989700;28;20209;-60
2022/10/26 09:28:37;;;;;;;4.10;2.92;;;19.60;99.90;;;;;;5002171;28;20186;-59
2022/10/26 09:31:03;;;;;;;5.68;2.70;;;19.70;99.90;;;;;;4989841;28;20552;-60
2022/10/26 09:33:33;;;;;;;2.70;2.47;;;19.90;99.90;;;;;;4960569;28;20254;-60
2022/10/26 09:36:01;;;;;;;2.72;2.25;;;20.10;99.90;;;;;;4991339;28;20573;-60
2022/10/26 09:38:33;;;;;;;5.30;2.75;;;20.20;99.90;;;;;;4977136;28;20218;-60
2022/10/26 09:41:35;;;;;;;3.80;2.40;;;20.20;99.90;;;;;;4990418;28;20191;-60
2022/10/26 09:44:24;;;;;;;3.92;2.40;;;20.40;99.90;;;;;;4988199;28;20221;-60
2022/10/26 09:46:59;;;;;;;2.60;2.33;;;20.30;99.90;;;;;;4989803;28;20267;-60
2022/10/26 09:49:52;;;;;;;4.05;2.45;;;20.80;99.90;;;;;;4989106;28;20191;-61
2022/10/26 09:52:17;;;;;;;5.97;2.95;;;20.20;99.90;;;;;;4986259;28;20196;-59
2022/10/26 09:54:43;;;;;;;2.33;2.03;;;20.40;99.90;;;;;;4983717;28;20215;-60
2022/10/26 09:57:16;;;;;;;4.23;2.40;;;20.60;99.90;;;;;;4987662;28;20553;-61
2022/10/26 09:59:46;;;;;;;5.57;2.30;;;20.70;99.90;;;;;;4981717;28;20450;-59
2022/10/26 10:02:31;;;;;;;4.22;2.10;;;20.90;99.90;;;;;;4984553;28;20179;-60
2022/10/26 10:04:57;;;;;;;5.20;3.30;;;21.40;99.90;;;;;;4986627;28;20688;-60
2022/10/26 10:07:22;;;;;;;3.10;2.40;;;21.50;99.90;;;;;;4985868;28;20183;-60
2022/10/26 10:10:14;;;;;;;3.50;2.20;;;21.60;99.30;;;;;;4988096;28;20192;-65
2022/10/26 10:12:39;;;;;;;4.78;2.70;;;21.60;98.60;;;;;;4990899;28;20188;-66
2022/10/26 10:15:17;;;;;;;6.47;2.70;;;21.60;98.50;;;;;;4987084;28;20246;-65
2022/10/26 10:17:47;;;;;;;7.00;3.60;;;21.70;98.80;;;;;;4992605;28;20198;-64
2022/10/26 10:20:18;;;;;;;3.15;2.20;;;21.70;98.80;;;;;;4992810;28;20176;-58
2022/10/26 10:23:01;;;;;;;6.30;3.25;;;21.70;98.40;;;;;;4995002;28;20188;-59
2022/10/26 10:25:32;;;;;;;4.00;2.55;;;21.70;98.30;;;;;;4992584;28;20218;-59
2022/10/26 10:27:57;;;;;;;3.58;1.90;;;21.60;98.30;;;;;;4997769;28;20194;-58
2022/10/26 10:30:32;;;;;;;3.00;2.20;;;21.70;98.00;;;;;;4992809;28;20207;-58
2022/10/26 10:33:06;;;;;;;4.38;2.95;;;22.00;97.70;;;;;;4991791;28;20682;-58
2022/10/26 10:35:32;;;;;;;4.40;2.13;;;22.60;97.20;;;;;;4993996;28;20218;-60
2022/10/26 10:37:58;;;;;;;5.20;2.30;;;23.30;96.40;;;;;;4998571;28;20829;-58
2022/10/26 10:40:26;;;;;;;4.03;2.33;;;23.90;95.30;;;;;;4998578;28;20221;-59
2022/10/26 10:43:01;;;;;;;4.63;2.50;;;24.10;94.20;;;;;;4987606;28;20836;-59
2022/10/26 10:45:29;;;;;;;5.30;2.40;;;23.90;94.30;;;;;;4988815;28;20470;-58
2022/10/26 10:48:04;;;;;;;4.60;2.90;;;23.90;94.40;;;;;;4992589;28;20986;-58
2022/10/26 10:50:32;;;;;;;6.80;2.60;;;23.50;94.60;;;;;;4992120;28;20450;-59
2022/10/26 10:53:21;;;;;;;8.80;2.90;;;23.30;94.90;;;;;;4979681;28;20451;-61
2022/10/26 10:56:31;;;;;;;5.70;2.90;;;23.40;95.70;;;;;;4991521;28;20556;-63
2022/10/26 10:58:59;;;;;;;7.33;2.93;;;22.80;96.10;;;;;;4957507;28;20953;-61
2022/10/26 11:01:40;;;;;;;5.67;2.23;;;22.80;96.80;;;;;;4982168;28;20443;-61
2022/10/26 11:04:32;;;;;;;7.83;2.17;;;23.00;96.60;;;;;;4964764;28;20480;-61
2022/10/26 11:07:01;;;;;;;4.37;2.63;;;23.30;95.60;;;;;;4991118;28;20443;-60
2022/10/26 11:09:30;;;;;;;5.53;2.50;;;24.10;95.80;;;;;;4988196;28;20454;-62
2022/10/26 11:12:09;;;;;;;3.00;2.00;;;24.30;94.20;;;;;;4996908;28;20443;-66
2022/10/26 11:14:41;;;;;;;4.50;2.73;;;24.70;93.50;;;;;;4995967;28;20511;-65
2022/10/26 11:17:16;;;;;;;4.33;2.50;;;24.80;92.90;;;;;;4991508;28;20525;-61
2022/10/26 11:19:45;;;;;;;5.33;3.03;;;24.50;92.80;;;;;;4996296;28;20798;-63
2022/10/26 11:22:15;;;;;;;3.97;2.30;;;24.30;92.90;;;;;;5007039;28;20456;-62
2022/10/26 11:24:44;;;;;;;2.83;2.10;;;24.00;92.80;;;;;;4993193;28;20470;-63
2022/10/26 11:27:17;;;;;;;5.43;2.07;;;23.70;93.40;;;;;;4992208;28;20477;-62
2022/10/26 11:30:26;;;;;;;6.83;2.50;;;23.60;93.90;;;;;;4992345;28;20805;-64
2022/10/26 11:33:09;;;;;;;4.37;2.80;;;23.60;94.10;;;;;;4979597;28;20451;-65
2022/10/26 11:35:45;;;;;;;3.90;2.70;;;23.70;94.20;;;;;;4990579;28;21002;-59
2022/10/26 11:38:44;;;;;;;4.93;2.60;;;23.50;93.60;;;;;;4981216;28;20470;-60
2022/10/26 11:41:53;;;;;;;3.73;2.07;;;23.50;94.20;;;;;;4989423;28;20521;-60
2022/10/26 11:44:29;;;;;;;4.77;2.30;;;23.40;93.40;;;;;;4930808;29;20563;-60
2022/10/26 11:47:03;;;;;;;2.90;2.50;;;23.30;94.40;;;;;;4914206;29;20820;-61
2022/10/26 11:49:56;;;;;;;5.17;2.47;;;23.30;94.10;;;;;;4963233;28;20589;-64
2022/10/26 11:52:38;;;;;;;3.30;2.13;;;23.30;94.20;;;;;;4987189;28;20530;-62
2022/10/26 11:55:04;;;;;;;3.17;2.13;;;23.40;94.10;;;;;;4990023;28;20480;-63
2022/10/26 11:57:35;;;;;;;4.37;2.60;;;23.60;94.10;;;;;;4999440;28;20485;-63
2022/10/26 12:00:22;;;;;;;5.40;2.50;;;23.70;94.00;;;;;;4991153;28;20481;-62
2022/10/26 12:03:07;;;;;;;4.00;2.10;;;23.90;94.00;;;;;;4989992;28;20466;-66
2022/10/26 12:05:42;;;;;;;3.23;1.90;;;23.90;93.80;;;;;;4987685;28;20465;-63
2022/10/26 12:08:15;;;;;;;3.63;2.07;;;23.60;93.50;;;;;;4965862;28;20449;-65
2022/10/26 12:10:47;;;;;;;4.80;2.77;;;23.80;93.40;;;;;;4988900;28;20450;-66
2022/10/26 12:13:41;;;;;;;5.33;2.00;;;23.70;93.40;;;;;;4987252;28;20508;-66
2022/10/26 12:16:23;;;;;;;4.23;2.30;;;23.60;93.40;;;;;;4988871;28;20471;-67
2022/10/26 12:18:56;;;;;;;3.60;1.70;;;23.40;93.70;;;;;;4967127;28;20443;-60
2022/10/26 12:21:28;;;;;;;5.27;2.50;;;23.20;93.80;;;;;;4984273;28;20434;-62
2022/10/26 12:24:21;;;;;;;4.50;2.03;;;23.20;94.20;;;;;;4987469;28;20465;-62
2022/10/26 12:27:02;;;;;;;3.33;1.80;;;23.00;94.80;;;;;;4992452;28;20474;-60
2022/10/26 12:29:48;;;;;;;4.50;1.57;;;23.10;94.60;;;;;;4995846;28;20794;-60
2022/10/26 12:32:32;;;;;;;2.70;1.70;;;23.10;94.40;;;;;;4999538;28;20442;-60
2022/10/26 12:35:00;;;;;;;3.87;1.97;;;23.00;93.90;;;;;;4985344;28;20557;-61
2022/10/26 12:37:36;;;;;;;4.90;1.70;;;22.90;94.00;;;;;;4991291;28;20459;-60
2022/10/26 12:40:31;;;;;;;2.10;1.60;;;22.80;93.80;;;;;;4999215;28;20450;-61
2022/10/26 12:43:12;;;;;;;3.40;2.53;;;22.90;94.20;;;;;;4980835;28;20517;-62
2022/10/26 12:45:39;;;;;;;6.43;2.63;;;22.80;94.20;;;;;;4995017;28;20470;-64
2022/10/26 12:48:24;;;;;;;3.20;2.10;;;22.70;94.10;;;;;;4990427;28;21130;-63
2022/10/26 12:50:50;;;;;;;8.27;2.47;;;22.80;94.50;;;;;;4983234;28;20454;-60
2022/10/26 12:53:19;;;;;;;3.43;1.90;;;22.40;93.70;;;;;;4981230;28;20501;-63
2022/10/26 12:55:44;;;;;;;4.93;2.07;;;22.90;93.80;;;;;;4989609;28;20494;-63
2022/10/26 12:58:13;;;;;;;6.23;2.07;;;22.90;94.30;;;;;;4989269;28;20445;-63
2022/10/26 13:01:14;;;;;;;6.13;1.77;;;23.00;94.80;;;;;;4980778;28;20191;-63
2022/10/26 13:04:07;;;;;;;3.63;2.13;;;23.20;95.00;;;;;;4989305;28;20451;-62
2022/10/26 13:06:47;;;;;;;5.63;2.50;;;23.30;94.70;;;;;;4981826;28;20450;-66
2022/10/26 13:09:21;;;;;;;3.20;2.40;;;23.30;93.90;;;;;;4986964;28;20450;-61
2022/10/26 13:11:55;;;;;;;3.20;1.90;;;23.50;94.50;;;;;;4987063;28;20469;-63
2022/10/26 13:14:31;;;;;;;4.10;2.13;;;23.70;93.60;;;;;;4990130;28;20474;-63